Terminal Aerodrome Forecast
Issued by NWS North Platte, NE

Home | Current Version | Previous Version | Text Only | Print | Product List | Glossary On
Versions: 1 2 3 4 5 6 7 8 9 10 11 12
791
FTUS43 KLBF 240520
TAFVTN
TAF
KVTN 240520Z 2406/2506 19016G24KT P6SM BKN250
     FM241300 22013G19KT P6SM BKN200
     FM241400 27014G22KT P6SM BKN200
     FM241600 30016G24KT P6SM BKN200
     FM242200 32012KT P6SM BKN200
     FM250100 36009KT P6SM SCT150 BKN200
     FM250300 03007KT P6SM SCT120 BKN200=

USA.gov is the U.S. government's official web portal to all federal, state and local government web resources and services.